Luverne, ND (58056)

6:48 AM CDT on July 22, 2014 (GMT -0500)
Valley City (KBAC) Elev 1401 ft | 46.94 °N, 98.02 °W | Change Station

Current weather conditions updated 13 minutes ago

Clear
Clear
63 °F
Feels Like 63 °F
N
8
Wind Variable Wind from NNW

Today is forecast to be Cooler than yesterday.

Today
High -- | Low -- °F
--% Chance of Precip.
Yesterday
High -- | Low -- °F
Precip. -- in
5:57 AM 9:16 PM
Waning Crescent, 18% visible
Pressure 30.05 in
Visibility 10.0 miles
Clouds Clear
Dew Point 63 °F
Humidity 100%
Rainfall 0.00 in
Snow Depth Not available.
UV 0 out of 12
Pollen 4.00 out of 12
Air Quality Not available.
Flu Activity Sporadic
METAR KBAC 221135Z AUTO 33007KT 10SM CLR 17/17 A3005 RMK AO2

More Conditions Fewer Conditions

Pressure 30.05 in
Visibility 10.0 miles
Clouds Clear
Dew Point 63 °F
Humidity 100%
Rainfall 0.00 in
Snow Depth Not available.
UV 0 out of 12
Pollen 4.00 out of 12
Air Quality Not available.
Flu Activity Sporadic
METAR KBAC 221135Z AUTO 33007KT 10SM CLR 17/17 A3005 RMK AO2

More Conditions Fewer Conditions

10-Day Weather Forecast

LIGHTNING

Thunderstorms are forecast for your area. Cloud conditions might be right for producing strikes in the next few days, though lightning itself cannot be forecasted.

Lightning is a visible electrical discharge produced by a thunderstorm, based on the build up of oppositely charged particles within a cloud and from cloud to ground.

Know how to stay safe in a lightning storm.

Check out these Lightning WunderPhotos!

Almanac

Astronomy

Jul. 22, 2014 Rise Set
Actual Time 5:57 AM CDT 9:16 PM CDT
Civil Twilight 5:20 AM CDT 9:53 PM CDT
Nautical Twilight 4:30 AM CDT 10:42 PM CDT
Astronomical Twilight 3:27 AM CDT 11:44 PM CDT
Moon 2:34 AM CDT 5:53 PM CDT
Length of Visible Light 16h 33m
Length of Day
15h 19m
Tomorrow will be 2m 14s shorter.
Waning Crescent, 18% of the Moon is Illuminated
Today
Waning Crescent
Jul 26
New
Aug 3
First Quarter
Aug 10
Full
Aug 17
Last Quarter

Today's Extremes

State Highs State Lows

Community

WunderPhotos

Upload Photos

1,736,199 photos uploaded!

Nearby

Snow Depth

Station Depth Elevation
No new snow has been reported.

Earthquake Activity

City Distance Mag. Time & Date
No recent earthquake activity has been reported nearby.
Minimum magnitude displayed is 2.5.

Coastal Water Temperatures

Place Temperature
No Stations Reporting

Nearby Weather Stations

There are no personal weather stations in this area.